createdAt,value
2019-05-18T00:00:00.046Z,13.10
2019-05-18T00:02:51.005Z,13.00
2019-05-18T00:05:34.945Z,13.00
2019-05-18T00:11:00.838Z,12.90
2019-05-18T00:16:31.828Z,12.80
2019-05-18T00:21:59.176Z,12.70
2019-05-18T00:27:26.681Z,12.60
2019-05-18T00:32:58.338Z,12.50
2019-05-18T00:38:23.997Z,12.40
2019-05-18T00:43:50.927Z,12.30
2019-05-18T00:49:18.634Z,12.30
2019-05-18T00:54:45.810Z,12.20
2019-05-18T01:00:12.307Z,12.10
2019-05-18T01:05:39.084Z,12.10
2019-05-18T01:11:10.166Z,12.00
2019-05-18T01:16:42.756Z,12.00
2019-05-18T01:22:46.318Z,12.00
2019-05-18T01:27:37.210Z,11.90
2019-05-18T01:33:06.367Z,11.90
2019-05-18T01:38:46.822Z,11.90
2019-05-18T01:44:04.034Z,11.80
2019-05-18T01:46:52.530Z,11.80
2019-05-18T01:49:23.607Z,11.80
2019-05-18T01:52:14.816Z,11.80
2019-05-18T01:55:04.294Z,11.80
2019-05-18T01:57:56.059Z,11.90
2019-05-18T02:00:45.484Z,11.90
2019-05-18T02:03:15.710Z,12.00
2019-05-18T02:06:04.989Z,12.00
2019-05-18T02:08:54.210Z,12.00
2019-05-18T02:15:29.652Z,12.00
2019-05-18T02:28:37.980Z,12.20
2019-05-18T02:34:05.888Z,12.40
2019-05-18T02:39:32.176Z,12.50
2019-05-18T02:45:10.535Z,12.40
2019-05-18T02:50:37.386Z,12.30
2019-05-18T02:56:03.451Z,12.20
2019-05-18T03:01:36.105Z,12.10
2019-05-18T03:07:13.596Z,12.10
2019-05-18T03:10:23.828Z,12.00
2019-05-18T03:12:54.566Z,12.00
2019-05-18T03:15:44.473Z,11.90
2019-05-18T03:19:06.810Z,11.90
2019-05-18T03:21:50.262Z,11.90
2019-05-18T03:24:23.078Z,11.90
2019-05-18T03:27:16.663Z,11.90
2019-05-18T03:30:36.906Z,11.90
2019-05-18T03:36:05.080Z,11.90
2019-05-18T03:41:33.873Z,11.90
2019-05-18T03:46:55.394Z,11.90
2019-05-18T03:52:23.210Z,11.80
2019-05-18T03:57:50.956Z,11.80
2019-05-18T04:03:17.505Z,11.80
2019-05-18T04:08:39.074Z,11.80
2019-05-18T04:13:54.700Z,11.80
2019-05-18T04:16:44.593Z,11.80
2019-05-18T04:19:45.578Z,11.80
2019-05-18T04:26:01.556Z,11.80
2019-05-18T04:29:11.584Z,11.90
2019-05-18T04:32:21.352Z,11.80
2019-05-18T04:35:13.687Z,11.80
2019-05-18T04:38:24.472Z,11.80
2019-05-18T04:45:12.497Z,11.90
2019-05-18T04:47:43.110Z,11.90
2019-05-18T04:50:13.161Z,11.90
2019-05-18T04:53:03.280Z,11.90
2019-05-18T04:58:33.939Z,11.90
2019-05-18T05:04:08.207Z,12.00
2019-05-18T05:07:19.250Z,12.00
2019-05-18T05:10:11.389Z,12.10
2019-05-18T05:13:01.371Z,12.10
2019-05-18T05:15:32.637Z,12.10
2019-05-18T05:18:42.455Z,12.10
2019-05-18T05:21:31.699Z,12.10
2019-05-18T05:24:02.018Z,12.10
2019-05-18T05:26:51.555Z,12.20
2019-05-18T05:29:40.724Z,12.20
2019-05-18T05:32:11.037Z,12.20
2019-05-18T05:35:21.054Z,12.20
2019-05-18T05:37:51.830Z,12.20
2019-05-18T05:40:44.173Z,12.20
2019-05-18T05:43:54.063Z,12.30
2019-05-18T05:46:43.433Z,12.30
2019-05-18T05:49:20.001Z,12.30
2019-05-18T05:51:51.010Z,12.40
2019-05-18T05:54:21.151Z,12.40
2019-05-18T05:57:11.776Z,12.40
2019-05-18T06:00:04.352Z,12.50
2019-05-18T06:02:35.229Z,12.60
2019-05-18T06:05:17.638Z,12.60
2019-05-18T06:08:02.714Z,12.60
2019-05-18T06:13:30.756Z,12.70
2019-05-18T06:16:00.909Z,12.70
2019-05-18T06:18:49.755Z,12.80
2019-05-18T06:21:39.433Z,12.90
2019-05-18T06:24:28.279Z,12.90
2019-05-18T06:26:58.805Z,13.00
2019-05-18T06:29:48.212Z,13.10
2019-05-18T06:32:37.241Z,13.20
2019-05-18T06:35:07.906Z,13.20
2019-05-18T06:37:38.564Z,13.30
2019-05-18T06:40:47.906Z,13.30
2019-05-18T06:43:36.861Z,13.40
2019-05-18T06:46:27.744Z,13.40
2019-05-18T06:48:57.564Z,13.50
2019-05-18T06:51:46.569Z,13.60
2019-05-18T06:54:16.119Z,13.60
2019-05-18T06:56:46.375Z,13.60
2019-05-18T06:59:35.664Z,13.70
2019-05-18T07:02:06.267Z,13.80
2019-05-18T07:04:36.035Z,13.90
2019-05-18T07:07:06.568Z,13.90
2019-05-18T07:09:38.289Z,14.00
2019-05-18T07:12:08.979Z,14.10
2019-05-18T07:14:39.367Z,14.10
2019-05-18T07:17:11.782Z,14.10
2019-05-18T07:20:02.064Z,14.20
2019-05-18T07:22:38.505Z,14.30
2019-05-18T07:25:27.940Z,14.40
2019-05-18T07:28:17.280Z,14.50
2019-05-18T07:31:06.874Z,14.60
2019-05-18T07:33:56.280Z,14.70
2019-05-18T07:36:26.454Z,14.70
2019-05-18T07:38:56.437Z,14.80
2019-05-18T07:41:47.084Z,14.90
2019-05-18T07:44:38.478Z,14.90
2019-05-18T07:47:27.881Z,15.00
2019-05-18T07:49:58.808Z,15.10
2019-05-18T07:52:29.345Z,15.20
2019-05-18T07:54:59.643Z,15.30
2019-05-18T07:57:29.623Z,15.30
2019-05-18T08:00:20.850Z,15.40
2019-05-18T08:02:51.239Z,15.50
2019-05-18T08:05:24.464Z,15.60
2019-05-18T08:07:54.930Z,15.60
2019-05-18T08:10:38.434Z,15.70
2019-05-18T08:13:12.662Z,15.70
2019-05-18T08:15:46.414Z,15.80
2019-05-18T08:18:36.853Z,15.80
2019-05-18T08:21:07.703Z,15.80
2019-05-18T08:23:38.458Z,15.90
2019-05-18T08:26:08.638Z,15.90
2019-05-18T08:28:38.960Z,16.00
2019-05-18T08:31:09.564Z,16.10
2019-05-18T08:33:39.706Z,16.10
2019-05-18T08:36:09.506Z,16.20
2019-05-18T08:38:40.082Z,16.20
2019-05-18T08:41:10.249Z,16.30
2019-05-18T08:43:42.933Z,16.40
2019-05-18T08:46:15.063Z,16.50
2019-05-18T08:48:46.523Z,16.60
2019-05-18T08:51:35.607Z,16.60
2019-05-18T08:54:07.803Z,16.80
2019-05-18T08:56:38.257Z,16.80
2019-05-18T08:59:39.785Z,16.90
2019-05-18T09:02:09.314Z,17.00
2019-05-18T09:04:39.376Z,17.10
2019-05-18T09:07:09.721Z,17.20
2019-05-18T09:09:40.121Z,17.20
2019-05-18T09:12:13.788Z,17.30
2019-05-18T09:14:45.074Z,17.40
2019-05-18T09:17:36.795Z,17.50
2019-05-18T09:20:07.613Z,17.60
2019-05-18T09:22:40.882Z,17.70
2019-05-18T09:25:35.993Z,17.80
2019-05-18T09:28:06.349Z,17.80
2019-05-18T09:30:36.259Z,17.90
2019-05-18T09:33:26.620Z,18.00
2019-05-18T09:35:56.563Z,18.10
2019-05-18T09:38:26.355Z,18.20
2019-05-18T09:40:56.469Z,18.20
2019-05-18T09:43:26.889Z,18.30
2019-05-18T09:45:57.137Z,18.30
2019-05-18T09:48:28.905Z,18.40
2019-05-18T09:51:02.977Z,18.50
2019-05-18T09:53:33.117Z,18.60
2019-05-18T09:56:03.430Z,18.60
2019-05-18T09:58:33.377Z,18.70
2019-05-18T10:01:03.701Z,18.80
2019-05-18T10:03:33.872Z,18.80
2019-05-18T10:06:04.192Z,18.90
2019-05-18T10:08:34.259Z,19.00
2019-05-18T10:11:04.583Z,19.00
2019-05-18T10:13:35.273Z,19.10
2019-05-18T10:16:06.187Z,19.20
2019-05-18T10:18:36.478Z,19.20
2019-05-18T10:21:07.096Z,19.30
2019-05-18T10:23:40.290Z,19.30
2019-05-18T10:26:09.169Z,19.40
2019-05-18T10:28:39.130Z,19.50
2019-05-18T10:31:09.715Z,19.50
2019-05-18T10:34:00.824Z,19.60
2019-05-18T10:36:31.153Z,19.60
2019-05-18T10:39:20.398Z,19.70
2019-05-18T10:42:12.270Z,19.80
2019-05-18T10:45:03.362Z,19.80
2019-05-18T10:47:37.121Z,19.80
2019-05-18T10:50:07.705Z,19.90
2019-05-18T10:52:37.851Z,20.00
2019-05-18T10:55:08.395Z,20.00
2019-05-18T10:57:40.129Z,20.10
2019-05-18T11:00:10.301Z,20.20
2019-05-18T11:02:59.469Z,20.30
2019-05-18T11:05:29.914Z,20.30
2019-05-18T11:08:21.953Z,20.40
2019-05-18T11:10:53.074Z,20.40
2019-05-18T11:13:24.047Z,20.40
2019-05-18T11:15:54.953Z,20.40
2019-05-18T11:21:11.493Z,20.50
2019-05-18T11:23:53.380Z,20.50
2019-05-18T11:26:24.046Z,20.50
2019-05-18T11:28:57.062Z,20.50
2019-05-18T11:31:27.184Z,20.60
2019-05-18T11:33:57.843Z,20.60
2019-05-18T11:36:29.325Z,20.60
2019-05-18T11:38:59.540Z,20.40
2019-05-18T11:41:29.555Z,20.50
2019-05-18T11:43:59.507Z,20.50
2019-05-18T11:46:30.002Z,20.50
2019-05-18T11:48:59.986Z,20.50
2019-05-18T11:51:30.131Z,20.50
2019-05-18T11:54:02.529Z,20.50
2019-05-18T11:56:32.747Z,20.50
2019-05-18T11:59:03.248Z,20.50
2019-05-18T12:01:33.799Z,20.50
2019-05-18T12:04:04.851Z,20.60
2019-05-18T12:06:54.238Z,20.60
2019-05-18T12:09:46.535Z,20.60
2019-05-18T12:12:16.690Z,20.70
2019-05-18T12:14:48.502Z,20.70
2019-05-18T12:17:18.558Z,20.70
2019-05-18T12:19:49.379Z,20.70
2019-05-18T12:22:19.915Z,20.60
2019-05-18T12:24:50.145Z,20.60
2019-05-18T12:27:37.205Z,20.60
2019-05-18T12:30:27.688Z,20.70
2019-05-18T12:32:58.121Z,20.70
2019-05-18T12:35:28.408Z,20.70
2019-05-18T12:38:00.551Z,20.70
2019-05-18T12:40:30.766Z,20.80
2019-05-18T12:43:01.144Z,20.80
2019-05-18T12:45:32.166Z,20.60
2019-05-18T12:48:02.179Z,20.60
2019-05-18T12:50:52.338Z,20.60
2019-05-18T12:53:26.808Z,20.60
2019-05-18T12:55:56.826Z,20.60
2019-05-18T12:58:29.352Z,20.60
2019-05-18T13:01:00.019Z,20.50
2019-05-18T13:03:30.750Z,20.60
2019-05-18T13:06:22.312Z,20.60
2019-05-18T13:08:53.207Z,20.60
2019-05-18T13:11:23.783Z,20.60
2019-05-18T13:13:54.306Z,20.70
2019-05-18T13:16:43.718Z,20.70
2019-05-18T13:19:14.077Z,20.80
2019-05-18T13:24:25.566Z,20.80
2019-05-18T13:26:57.902Z,20.90
2019-05-18T13:29:28.091Z,20.90
2019-05-18T13:31:58.130Z,20.90
2019-05-18T13:34:28.258Z,20.90
2019-05-18T13:36:58.366Z,21.00
2019-05-18T13:39:48.903Z,21.00
2019-05-18T13:42:21.872Z,21.10
2019-05-18T13:44:52.792Z,21.20
2019-05-18T13:47:43.217Z,21.30
2019-05-18T13:50:32.642Z,21.40
2019-05-18T13:53:23.431Z,21.40
2019-05-18T13:55:54.000Z,21.50
2019-05-18T13:58:24.499Z,21.50
2019-05-18T14:00:55.349Z,21.60
2019-05-18T14:03:25.922Z,21.70
2019-05-18T14:05:56.652Z,21.80
2019-05-18T14:08:27.378Z,21.90
2019-05-18T14:10:57.600Z,22.10
2019-05-18T14:13:28.025Z,22.20
2019-05-18T14:16:17.430Z,22.20
2019-05-18T14:19:10.453Z,22.30
2019-05-18T14:21:41.355Z,22.30
2019-05-18T14:24:13.520Z,22.40
2019-05-18T14:26:55.209Z,22.40
2019-05-18T14:29:26.660Z,22.50
2019-05-18T14:32:16.124Z,22.60
2019-05-18T14:35:07.339Z,22.60
2019-05-18T14:37:58.251Z,22.70
2019-05-18T14:40:50.167Z,22.80
2019-05-18T14:43:40.139Z,22.80
2019-05-18T14:46:10.270Z,22.80
2019-05-18T14:48:40.517Z,22.90
2019-05-18T14:51:11.263Z,22.90
2019-05-18T14:53:44.346Z,22.90
2019-05-18T14:56:14.453Z,23.00
2019-05-18T14:58:44.575Z,23.10
2019-05-18T15:01:34.158Z,23.20
2019-05-18T15:04:04.418Z,23.30
2019-05-18T15:06:34.406Z,23.40
2019-05-18T15:09:05.979Z,23.50
2019-05-18T15:11:36.029Z,23.50
2019-05-18T15:14:06.118Z,23.50
2019-05-18T15:16:35.930Z,23.50
2019-05-18T15:19:06.528Z,23.50
2019-05-18T15:21:37.293Z,23.50
2019-05-18T15:24:08.886Z,23.40
2019-05-18T15:26:59.257Z,23.40
2019-05-18T15:32:14.154Z,23.30
2019-05-18T15:34:44.211Z,23.20
2019-05-18T15:37:14.383Z,23.20
2019-05-18T15:40:04.983Z,23.10
2019-05-18T15:42:54.531Z,23.00
2019-05-18T15:45:25.187Z,22.90
2019-05-18T15:47:56.478Z,22.80
2019-05-18T15:50:27.917Z,22.80
2019-05-18T15:52:58.023Z,22.70
2019-05-18T15:55:47.832Z,22.60
2019-05-18T15:58:37.897Z,22.60
2019-05-18T16:01:08.004Z,22.60
2019-05-18T16:03:57.502Z,22.50
2019-05-18T16:06:27.820Z,22.50
2019-05-18T16:08:57.685Z,22.50
2019-05-18T16:11:27.615Z,22.40
2019-05-18T16:13:58.133Z,22.40
2019-05-18T16:16:28.962Z,22.30
2019-05-18T16:18:58.926Z,22.40
2019-05-18T16:21:50.016Z,22.30
2019-05-18T16:24:20.499Z,22.20
2019-05-18T16:26:50.583Z,22.20
2019-05-18T16:29:21.195Z,22.10
2019-05-18T16:31:52.111Z,22.10
2019-05-18T16:34:22.668Z,22.00
2019-05-18T16:37:32.818Z,22.00
2019-05-18T16:40:03.121Z,21.90
2019-05-18T16:42:33.804Z,21.80
2019-05-18T16:45:06.912Z,21.70
2019-05-18T16:47:37.307Z,21.60
2019-05-18T16:50:26.994Z,21.60
2019-05-18T16:52:58.640Z,21.50
2019-05-18T16:55:28.861Z,21.40
2019-05-18T16:58:00.935Z,21.40
2019-05-18T17:00:50.609Z,21.50
2019-05-18T17:03:20.629Z,21.40
2019-05-18T17:05:50.713Z,21.40
2019-05-18T17:08:20.810Z,21.30
2019-05-18T17:10:50.561Z,21.30
2019-05-18T17:13:20.667Z,21.20
2019-05-18T17:15:50.779Z,21.10
2019-05-18T17:18:21.044Z,21.00
2019-05-18T17:21:11.828Z,21.00
2019-05-18T17:23:41.987Z,21.00
2019-05-18T17:26:12.013Z,20.80
2019-05-18T17:29:01.210Z,20.80
2019-05-18T17:31:50.237Z,20.80
2019-05-18T17:34:21.155Z,20.80
2019-05-18T17:37:10.912Z,20.70
2019-05-18T17:39:41.083Z,20.70
2019-05-18T17:42:11.253Z,20.60
2019-05-18T17:44:43.803Z,20.60
2019-05-18T17:47:35.156Z,20.50
2019-05-18T17:50:05.698Z,20.40
2019-05-18T17:52:36.379Z,20.40
2019-05-18T17:55:08.491Z,20.30
2019-05-18T17:57:38.584Z,20.30
2019-05-18T18:00:08.777Z,20.20
2019-05-18T18:02:39.194Z,20.20
2019-05-18T18:05:28.491Z,20.10
2019-05-18T18:08:17.848Z,20.10
2019-05-18T18:11:07.563Z,20.10
2019-05-18T18:13:40.443Z,20.00
2019-05-18T18:16:29.651Z,20.00
2019-05-18T18:19:19.107Z,20.00
2019-05-18T18:21:49.160Z,19.90
2019-05-18T18:24:19.240Z,19.90
2019-05-18T18:27:24.203Z,19.80
2019-05-18T18:29:41.764Z,19.70
2019-05-18T18:32:30.851Z,19.60
2019-05-18T18:35:02.171Z,19.60
2019-05-18T18:37:51.664Z,19.60
2019-05-18T18:40:41.829Z,19.50
2019-05-18T18:43:30.678Z,19.40
2019-05-18T18:46:20.118Z,19.40
2019-05-18T18:48:50.302Z,19.40
2019-05-18T18:51:40.575Z,19.30
2019-05-18T18:54:12.673Z,19.30
2019-05-18T18:56:42.876Z,19.20
2019-05-18T18:59:13.175Z,19.20
2019-05-18T19:01:43.081Z,19.10
2019-05-18T19:04:13.048Z,19.10
2019-05-18T19:07:02.772Z,19.00
2019-05-18T19:09:33.254Z,19.00
2019-05-18T19:12:23.239Z,18.90
2019-05-18T19:18:04.541Z,18.80
2019-05-18T19:20:34.647Z,18.70
2019-05-18T19:23:45.535Z,18.60
2019-05-18T19:26:35.431Z,18.50
2019-05-18T19:29:05.927Z,18.40
2019-05-18T19:31:36.581Z,18.30
2019-05-18T19:34:26.113Z,18.20
2019-05-18T19:39:55.447Z,18.10
2019-05-18T19:42:26.147Z,18.10
2019-05-18T19:44:56.584Z,18.00
2019-05-18T19:47:27.136Z,17.90
2019-05-18T19:49:57.562Z,17.90
2019-05-18T19:52:27.711Z,17.80
2019-05-18T19:54:57.825Z,17.70
2019-05-18T19:57:48.790Z,17.70
2019-05-18T20:00:40.262Z,17.60
2019-05-18T20:03:10.602Z,17.50
2019-05-18T20:05:43.805Z,17.50
2019-05-18T20:08:16.002Z,17.40
2019-05-18T20:10:46.717Z,17.40
2019-05-18T20:13:36.898Z,17.30
2019-05-18T20:16:27.009Z,17.20
2019-05-18T20:18:58.763Z,17.20
2019-05-18T20:21:51.271Z,17.10
2019-05-18T20:24:22.392Z,17.00
2019-05-18T20:27:13.488Z,16.90
2019-05-18T20:30:04.225Z,16.80
2019-05-18T20:32:35.739Z,16.70
2019-05-18T20:35:26.372Z,16.60
2019-05-18T20:38:17.706Z,16.60
2019-05-18T20:40:48.036Z,16.60
2019-05-18T20:46:16.422Z,16.50
2019-05-18T20:51:44.419Z,16.40
2019-05-18T20:57:11.724Z,16.30
2019-05-18T20:59:43.211Z,16.30
2019-05-18T21:02:34.019Z,16.20
2019-05-18T21:05:23.929Z,16.10
2019-05-18T21:07:55.766Z,16.00
2019-05-18T21:10:45.503Z,16.00
2019-05-18T21:13:16.386Z,15.80
2019-05-18T21:16:28.491Z,15.70
2019-05-18T21:18:59.947Z,15.60
2019-05-18T21:21:51.216Z,15.60
2019-05-18T21:24:24.114Z,15.60
2019-05-18T21:27:15.128Z,15.50
2019-05-18T21:30:07.461Z,15.50
2019-05-18T21:32:56.981Z,15.50
2019-05-18T21:36:07.559Z,15.50
2019-05-18T21:38:39.567Z,15.60
2019-05-18T21:41:11.232Z,15.80
2019-05-18T21:43:41.607Z,15.80
2019-05-18T21:46:12.610Z,15.80
2019-05-18T21:48:45.741Z,15.80
2019-05-18T21:54:14.902Z,15.70
2019-05-18T21:59:40.557Z,15.60
2019-05-18T22:05:06.346Z,15.60
2019-05-18T22:10:32.800Z,15.70
2019-05-18T22:15:59.302Z,15.60
2019-05-18T22:21:25.957Z,15.60
2019-05-18T22:26:52.607Z,15.50
2019-05-18T22:29:24.786Z,15.50
2019-05-18T22:31:55.616Z,15.50
2019-05-18T22:34:26.696Z,15.40
2019-05-18T22:37:16.104Z,15.30
2019-05-18T22:40:06.118Z,15.30
2019-05-18T22:42:55.962Z,15.30
2019-05-18T22:45:46.109Z,15.30
2019-05-18T22:48:41.331Z,15.30
2019-05-18T22:51:50.254Z,15.20
2019-05-18T22:57:04.285Z,15.20
2019-05-18T22:59:55.707Z,15.20
2019-05-18T23:02:45.805Z,15.10
2019-05-18T23:05:56.178Z,15.10
2019-05-18T23:08:27.305Z,15.10
2019-05-18T23:13:45.213Z,15.10
2019-05-18T23:16:15.761Z,15.10
2019-05-18T23:18:56.496Z,15.10
2019-05-18T23:21:19.714Z,15.00
2019-05-18T23:23:50.364Z,15.10
2019-05-18T23:26:40.207Z,15.00
2019-05-18T23:29:33.756Z,15.00
2019-05-18T23:32:31.286Z,15.00
2019-05-18T23:35:03.097Z,15.00
2019-05-18T23:37:53.884Z,15.10
2019-05-18T23:40:45.611Z,15.20
2019-05-18T23:43:36.295Z,15.20
2019-05-18T23:46:26.711Z,15.30
2019-05-18T23:49:10.028Z,15.20
2019-05-18T23:52:09.274Z,15.10
2019-05-18T23:54:28.287Z,15.10
2019-05-18T23:57:35.053Z,15.10
